Main page
Satellite images 15-day forecastsClimateMarine weather Cyclones Lightning AirportsFAQ Newsletter About
Weather : Europe Africa North America South America Asia Australia-Oceania Others
Languages Contact

Maputo, Mozambique

Mavalane

latitude: 25-55S, longitude: 032-34E, elevation: 39 m


METAR: FQMA 310700Z 35011KT CAVOK 19/11 Q1024 NOSIG
short-TAF: out of date (6778 hours)
long-TAF: FQMA 310400Z 3106/0112 35008KT CAVOK BECMG 3112/3114 05010KT BECMG 3118/3120 VRB07KT TX28/3112ZTN11/0104Z

Time: 09:23 (07:23 UTC)

Current weather observation

The report was made 23 minutes ago, at 07:00 UTC  
Wind 11 kt from the North
Temperature 19°C
Humidity 60%
Pressure 1024 hPa
Visibility 10 km or more
no clouds below 1500 m and no cumulonimbus

Change units

Forecast

The report was made 3 hours and 26 minutes ago, at 03:57 UTC  
Forecast valid from 31 at 06 UTC to 01 at 12 UTC
Wind 08 kt from the North
Visibility 10 km or more
no clouds below 1500 m and no cumulonimbus
Becoming
from 31 at 12 UTC to 31 at 14 UTC
Wind 10 kt from the Northeast
Becoming
from 31 at 18 UTC to 31 at 20 UTC
Wind 07 kt from variable directions
The information on this site is subject to a disclaimer
Weather : Europe Africa North America South America Asia Australia-Oceania Others
Satellite images 15-day forecastsClimateMarine weather Cyclones Lightning AirportsFAQ Languages Contact Newsletter About